Time;durP1;ratioP1;P1;durP2;ratioP2;P2;SDS_P1;SDS_P2;PMS_P1;PMS_P2;Temp;Humidity;BMP_temperature;BMP_pressure;BME280_temperature;BME280_humidity;BME280_pressure;Samples;Min_cycle;Max_cycle;Signal;HPM_P1;HPM_P2
2022/09/13 08:25:40;;;;;;;2.22;1.48;;;21.70;76.30;;;;;;10630751;32;12209137;-73
2022/09/13 08:31:43;;;;;;;4.10;1.83;;;21.80;77.10;;;;;;11008831;32;20026;-72
2022/09/13 08:37:45;;;;;;;2.60;1.42;;;22.00;78.20;;;;;;11008035;32;20046;-73
2022/09/13 08:44:10;;;;;;;3.17;2.00;;;22.30;78.60;;;;;;11007910;32;20034;-72
2022/09/13 08:50:28;;;;;;;4.07;1.98;;;22.60;78.50;;;;;;11040804;32;20025;-74
2022/09/13 08:56:58;;;;;;;4.28;1.73;;;22.80;78.50;;;;;;11045484;32;20049;-74
2022/09/13 09:03:09;;;;;;;1.95;0.90;;;23.00;78.40;;;;;;11050018;32;20033;-74
2022/09/13 09:09:18;;;;;;;1.83;0.98;;;23.10;78.10;;;;;;11045270;32;20030;-75
2022/09/13 09:15:22;;;;;;;2.25;1.35;;;23.30;77.80;;;;;;11049454;32;20053;-75
2022/09/13 09:21:25;;;;;;;5.47;1.75;;;23.50;77.10;;;;;;11049365;32;20048;-76
2022/09/13 09:27:30;;;;;;;10.95;1.27;;;23.60;76.30;;;;;;11031328;32;20412;-77
2022/09/13 09:34:31;;;;;;;3.00;0.85;;;23.70;76.40;;;;;;11038177;32;20045;-76
2022/09/13 09:40:44;;;;;;;2.05;1.05;;;23.80;76.00;;;;;;10828797;32;20070;-75
2022/09/13 09:46:57;;;;;;;0.82;0.73;;;24.00;75.20;;;;;;10826878;33;20094;-76
2022/09/13 09:53:15;;;;;;;3.97;0.60;;;24.10;75.20;;;;;;10831876;32;20032;-75
2022/09/13 09:59:24;;;;;;;;;;;24.30;74.50;;;;;;10819758;32;20142;-77
2022/09/13 10:05:29;;;;;;;2.12;1.23;;;24.30;73.80;;;;;;10831198;32;19988;-76
2022/09/13 10:11:47;;;;;;;1.58;0.95;;;24.50;72.80;;;;;;10991693;32;20057;-75
2022/09/13 10:18:15;;;;;;;1.87;0.82;;;24.70;72.50;;;;;;10991010;32;20026;-76
2022/09/13 10:24:20;;;;;;;3.03;0.70;;;24.90;71.80;;;;;;10983512;32;20057;-75
2022/09/13 10:31:01;;;;;;;0.70;0.70;;;25.00;70.20;;;;;;10983696;32;20033;-77
2022/09/13 10:37:29;;;;;;;1.27;0.75;;;25.20;69.50;;;;;;10777096;33;20024;-75
2022/09/13 10:43:33;;;;;;;0.43;0.40;;;25.30;68.80;;;;;;10788243;33;20050;-76
2022/09/13 10:49:47;;;;;;;1.08;0.70;;;25.60;68.50;;;;;;10792967;33;20028;-75
2022/09/13 10:55:54;;;;;;;3.17;0.88;;;25.80;67.80;;;;;;10792421;33;20016;-77
2022/09/13 11:02:02;;;;;;;3.17;0.65;;;26.00;66.90;;;;;;10790513;33;20036;-76
2022/09/13 11:08:23;;;;;;;2.45;1.12;;;26.30;66.40;;;;;;10846600;32;20374;-75
2022/09/13 11:14:41;;;;;;;3.00;1.00;;;26.60;65.60;;;;;;10981600;32;20027;-76
2022/09/13 11:21:01;;;;;;;2.67;1.37;;;26.80;64.60;;;;;;10976991;32;20026;-77
2022/09/13 11:27:22;;;;;;;1.37;0.82;;;26.70;65.00;;;;;;10976710;32;20065;-76
2022/09/13 11:33:40;;;;;;;4.93;1.30;;;26.60;65.00;;;;;;10980967;32;20330;-75
2022/09/13 11:39:51;;;;;;;1.17;0.93;;;26.80;64.80;;;;;;10967637;32;20386;-76
2022/09/13 11:46:35;;;;;;;0.62;0.62;;;27.10;63.90;;;;;;10976383;32;20026;-76
2022/09/13 11:53:01;;;;;;;1.75;1.15;;;26.90;64.30;;;;;;10976004;32;20069;-76
2022/09/13 11:59:31;;;;;;;2.22;1.08;;;27.20;63.40;;;;;;10975473;32;20030;-76
2022/09/13 12:05:56;;;;;;;1.60;1.27;;;27.30;63.10;;;;;;10975600;32;20026;-75
2022/09/13 12:12:20;;;;;;;5.55;1.60;;;27.30;62.40;;;;;;10979901;32;20018;-76
2022/09/13 12:18:43;;;;;;;2.40;1.55;;;27.30;62.50;;;;;;10962289;32;20042;-76
2022/09/13 12:24:52;;;;;;;1.52;1.20;;;26.80;61.80;;;;;;10976036;32;20406;-77
2022/09/13 12:31:27;;;;;;;2.45;1.30;;;26.60;62.80;;;;;;10979819;32;20374;-75
2022/09/13 12:38:07;;;;;;;1.90;1.17;;;26.50;63.40;;;;;;10979502;32;20019;-75
2022/09/13 12:44:25;;;;;;;1.62;1.25;;;26.60;63.10;;;;;;10974875;32;20061;-76
2022/09/13 12:50:54;;;;;;;1.52;0.90;;;26.70;63.40;;;;;;10961398;32;20054;-76
2022/09/13 12:57:19;;;;;;;1.85;1.27;;;26.80;62.80;;;;;;10979625;32;20031;-76
2022/09/13 13:03:26;;;;;;;1.50;0.75;;;27.10;62.70;;;;;;10974930;32;20045;-78
2022/09/13 13:09:47;;;;;;;1.83;0.77;;;27.10;62.50;;;;;;10978886;32;20334;-78
2022/09/13 13:15:49;;;;;;;1.60;0.93;;;27.10;62.90;;;;;;10986481;32;20053;-76
2022/09/13 13:21:53;;;;;;;4.00;1.45;;;26.90;63.50;;;;;;10972795;32;20053;-76
2022/09/13 13:27:55;;;;;;;1.45;1.02;;;26.90;64.00;;;;;;10981681;32;20432;-77
2022/09/13 13:33:57;;;;;;;4.30;1.23;;;27.10;64.00;;;;;;10985634;32;20077;-77
2022/09/13 13:40:21;;;;;;;1.37;0.73;;;27.30;64.20;;;;;;10985129;32;20354;-78
2022/09/13 13:46:23;;;;;;;2.35;1.08;;;27.30;64.10;;;;;;10985647;32;20063;-77
2022/09/13 13:52:25;;;;;;;0.73;0.50;;;27.30;64.50;;;;;;10984806;32;20065;-76
2022/09/13 13:58:42;;;;;;;0.73;0.73;;;27.30;64.80;;;;;;10982671;32;20097;-75
2022/09/13 14:05:07;;;;;;;1.95;1.08;;;27.20;65.20;;;;;;10983374;32;20304;-75
2022/09/13 14:11:15;;;;;;;1.10;0.77;;;27.00;65.70;;;;;;10980009;32;20436;-76
2022/09/13 14:17:35;;;;;;;;;;;26.80;66.20;;;;;;10984317;32;20056;-77
2022/09/13 14:23:37;;;;;;;2.97;0.65;;;26.70;66.50;;;;;;10983416;32;19934;-77
2022/09/13 14:29:39;;;;;;;2.78;0.50;;;26.70;66.70;;;;;;10978859;32;20053;-77
2022/09/13 14:35:41;;;;;;;3.70;0.60;;;26.80;66.50;;;;;;10983489;32;20398;-77
2022/09/13 14:41:43;;;;;;;2.67;0.98;;;26.80;66.50;;;;;;10969675;32;20026;-76
2022/09/13 14:48:38;;;;;;;1.05;0.60;;;26.90;65.90;;;;;;10981281;32;20026;-76
2022/09/13 14:54:50;;;;;;;0.95;0.68;;;27.10;65.00;;;;;;10982395;32;20042;-77
2022/09/13 15:00:59;;;;;;;2.83;0.70;;;27.20;64.50;;;;;;10981880;32;20041;-77
2022/09/13 15:07:39;;;;;;;2.97;1.27;;;27.20;64.30;;;;;;10981338;32;20349;-75
2022/09/13 15:13:44;;;;;;;0.52;0.45;;;27.40;64.20;;;;;;10982217;32;20452;-76
2022/09/13 15:19:51;;;;;;;1.65;0.55;;;27.60;63.50;;;;;;10977373;32;20053;-76
2022/09/13 15:25:59;;;;;;;1.25;0.77;;;27.80;63.70;;;;;;10981736;32;20432;-76
2022/09/13 15:32:01;;;;;;;1.33;0.80;;;27.80;63.20;;;;;;10981212;32;20022;-76
2022/09/13 15:38:21;;;;;;;2.08;1.17;;;27.90;63.00;;;;;;10980682;32;20357;-75
2022/09/13 15:44:24;;;;;;;2.37;1.08;;;28.00;62.70;;;;;;10979080;32;20086;-76
2022/09/13 15:50:32;;;;;;;0.98;0.57;;;28.30;62.40;;;;;;10980396;32;20076;-75
2022/09/13 15:56:38;;;;;;;3.55;0.90;;;28.30;62.50;;;;;;10977107;32;20022;-76
2022/09/13 16:02:46;;;;;;;10.85;1.23;;;28.00;62.90;;;;;;10976770;32;20350;-77
2022/09/13 16:08:48;;;;;;;4.00;1.00;;;27.70;63.30;;;;;;10982206;32;20022;-76
2022/09/13 16:14:50;;;;;;;0.52;0.52;;;27.50;63.70;;;;;;10982907;32;20018;-76
2022/09/13 16:20:52;;;;;;;1.75;0.60;;;27.40;63.80;;;;;;10970191;26;20053;-76
2022/09/13 16:27:12;;;;;;;1.45;0.90;;;27.40;63.60;;;;;;10899451;32;20433;-76
2022/09/13 16:33:14;;;;;;;1.52;0.80;;;27.50;63.30;;;;;;10898889;32;20081;-77
2022/09/13 16:39:17;;;;;;;1.65;0.57;;;27.80;63.00;;;;;;10881576;32;20379;-78
2022/09/13 16:45:45;;;;;;;2.50;0.75;;;28.00;62.30;;;;;;10903476;32;20023;-77
2022/09/13 16:52:02;;;;;;;3.45;0.95;;;27.40;63.30;;;;;;10901094;32;20089;-77
2022/09/13 16:58:05;;;;;;;0.47;0.47;;;27.10;64.20;;;;;;10905216;32;20046;-77
2022/09/13 17:04:11;;;;;;;1.02;0.50;;;26.80;64.90;;;;;;10891553;32;20477;-78
2022/09/13 17:10:13;;;;;;;0.82;0.73;;;26.60;65.30;;;;;;10904565;32;20023;-77
2022/09/13 17:16:19;;;;;;;1.05;0.62;;;26.40;65.60;;;;;;10904426;32;20100;-78
2022/09/13 17:22:22;;;;;;;0.45;0.45;;;26.30;65.90;;;;;;10903938;32;20027;-77
2022/09/13 17:28:24;;;;;;;0.77;0.55;;;26.20;66.20;;;;;;10904041;32;20053;-77
2022/09/13 17:34:27;;;;;;;1.70;1.05;;;26.00;66.40;;;;;;10899921;32;20289;-78
2022/09/13 17:41:08;;;;;;;3.92;0.50;;;25.90;66.70;;;;;;10901831;32;20065;-78
2022/09/13 17:47:10;;;;;;;0.50;0.40;;;25.80;67.00;;;;;;10903633;32;20028;-78
2022/09/13 17:53:13;;;;;;;0.68;0.60;;;25.70;67.30;;;;;;10889753;32;20023;-77
2022/09/13 17:59:18;;;;;;;1.12;1.00;;;25.70;67.40;;;;;;10903297;32;20035;-78
2022/09/13 18:05:20;;;;;;;1.10;0.80;;;25.70;67.50;;;;;;10870747;32;20388;-78
2022/09/13 18:11:22;;;;;;;2.65;1.20;;;25.60;67.70;;;;;;10865589;32;20032;-78
2022/09/13 18:17:36;;;;;;;1.35;0.77;;;25.50;67.80;;;;;;10865466;32;20028;-78
2022/09/13 18:23:38;;;;;;;1.08;0.90;;;25.50;68.00;;;;;;10865029;32;20085;-78
2022/09/13 18:29:41;;;;;;;3.15;0.80;;;25.40;68.10;;;;;;10864984;32;20023;-78
2022/09/13 18:36:06;;;;;;;1.05;0.52;;;25.30;68.20;;;;;;10864800;32;20019;-74
2022/09/13 18:42:09;;;;;;;1.35;0.95;;;25.30;68.40;;;;;;10864390;32;20046;-74
2022/09/13 18:48:11;;;;;;;2.30;1.10;;;25.20;68.70;;;;;;10864219;32;20347;-74
2022/09/13 18:54:16;;;;;;;2.97;1.33;;;25.10;68.90;;;;;;10863827;32;20031;-74
2022/09/13 19:00:18;;;;;;;4.43;0.68;;;25.10;69.00;;;;;;10859506;32;20082;-74
2022/09/13 19:06:23;;;;;;;1.70;0.95;;;25.00;69.30;;;;;;10858562;32;20049;-74
2022/09/13 19:12:25;;;;;;;1.42;0.57;;;24.90;69.60;;;;;;10846117;32;20024;-73
2022/09/13 19:18:39;;;;;;;1.02;0.57;;;24.90;69.60;;;;;;10863342;32;20082;-73
2022/09/13 19:24:42;;;;;;;0.43;0.30;;;24.90;69.60;;;;;;10861068;32;20050;-74
2022/09/13 19:30:48;;;;;;;2.20;0.68;;;24.80;69.70;;;;;;10862937;32;20415;-73
2022/09/13 19:36:56;;;;;;;2.33;0.77;;;24.80;69.90;;;;;;10858751;32;20015;-73
2022/09/13 19:42:58;;;;;;;1.40;0.60;;;24.80;69.90;;;;;;10858469;32;20071;-73
2022/09/13 19:49:01;;;;;;;1.17;0.77;;;24.80;70.10;;;;;;10858359;32;20023;-73
2022/09/13 19:55:03;;;;;;;1.27;0.32;;;24.70;70.30;;;;;;10858315;32;20347;-73
2022/09/13 20:01:13;;;;;;;1.52;0.85;;;24.70;70.30;;;;;;10857877;32;20035;-73
2022/09/13 20:07:16;;;;;;;3.08;0.65;;;24.60;70.50;;;;;;10858039;32;20019;-73
2022/09/13 20:13:18;;;;;;;0.40;0.40;;;24.60;70.70;;;;;;10859597;32;20050;-73
2022/09/13 20:19:22;;;;;;;0.93;0.60;;;24.50;70.80;;;;;;10847531;32;20031;-73
2022/09/13 20:25:25;;;;;;;0.40;0.40;;;24.40;71.00;;;;;;10856515;32;20027;-73
2022/09/13 20:31:29;;;;;;;1.75;0.82;;;24.40;71.00;;;;;;10861563;32;20042;-73
2022/09/13 20:37:32;;;;;;;3.92;1.17;;;24.40;71.10;;;;;;10848075;32;20422;-73
2022/09/13 20:43:50;;;;;;;2.92;0.90;;;24.40;71.10;;;;;;10847898;32;20305;-73
2022/09/13 20:50:07;;;;;;;1.10;0.62;;;24.30;71.10;;;;;;10847871;32;20055;-73
2022/09/13 20:56:14;;;;;;;1.42;0.85;;;24.30;71.20;;;;;;10856964;32;20350;-73
2022/09/13 21:02:17;;;;;;;0.73;0.67;;;24.30;71.30;;;;;;10843594;32;20057;-74
2022/09/13 21:15:09;;;;;;;2.28;1.33;;;24.30;71.40;;;;;;10860770;32;20402;-73
2022/09/13 21:21:16;;;;;;;2.35;1.17;;;24.30;71.60;;;;;;10852440;32;20036;-73
2022/09/13 21:27:18;;;;;;;0.98;0.85;;;24.20;71.60;;;;;;10860201;32;20055;-73
2022/09/13 21:33:21;;;;;;;1.62;0.85;;;24.20;71.90;;;;;;10852978;32;20047;-73
2022/09/13 21:39:42;;;;;;;0.68;0.55;;;24.10;72.00;;;;;;10866312;32;20395;-74
2022/09/13 21:45:44;;;;;;;1.45;0.82;;;24.10;72.20;;;;;;10866066;32;20047;-74
2022/09/13 21:51:48;;;;;;;2.60;1.60;;;24.00;72.40;;;;;;10865874;32;20031;-73
2022/09/13 21:57:51;;;;;;;1.15;0.95;;;24.00;72.60;;;;;;10865704;32;20347;-74
2022/09/13 22:03:53;;;;;;;2.03;1.27;;;23.90;72.70;;;;;;10865378;32;20031;-73
2022/09/13 22:09:56;;;;;;;2.47;1.40;;;23.90;72.70;;;;;;10865336;32;20024;-74
2022/09/13 22:16:14;;;;;;;2.10;0.98;;;23.80;72.70;;;;;;10865181;32;20063;-73
2022/09/13 22:22:17;;;;;;;3.55;2.50;;;23.80;72.90;;;;;;10851674;32;20028;-73
2022/09/13 22:28:24;;;;;;;4.05;1.80;;;23.80;73.00;;;;;;10860689;32;20058;-74
2022/09/13 22:34:40;;;;;;;3.47;2.13;;;23.70;73.10;;;;;;10864726;32;20304;-73
2022/09/13 22:40:41;;;;;;;3.58;2.42;;;23.70;73.20;;;;;;10847087;32;20397;-73
2022/09/13 22:46:44;;;;;;;4.00;2.47;;;23.60;73.30;;;;;;10864381;32;20019;-74
2022/09/13 22:52:46;;;;;;;5.15;1.87;;;23.70;73.30;;;;;;10864375;32;20409;-74
2022/09/13 22:58:55;;;;;;;3.55;2.12;;;23.60;73.30;;;;;;10864027;32;20108;-74
2022/09/13 23:04:57;;;;;;;3.10;2.22;;;23.70;73.40;;;;;;10863601;32;20054;-74
2022/09/13 23:11:11;;;;;;;3.12;1.83;;;23.70;73.40;;;;;;10860395;32;20019;-73
2022/09/13 23:17:14;;;;;;;4.20;1.83;;;23.60;73.40;;;;;;10859290;32;20058;-77
2022/09/13 23:23:16;;;;;;;2.85;2.00;;;23.60;73.50;;;;;;10863289;32;20331;-77
2022/09/13 23:29:19;;;;;;;4.47;2.22;;;23.60;73.80;;;;;;10863394;32;20484;-77
2022/09/13 23:35:21;;;;;;;2.67;1.70;;;23.50;73.80;;;;;;10863199;32;20023;-77
2022/09/13 23:41:55;;;;;;;3.62;2.10;;;23.50;73.90;;;;;;10860287;32;20027;-77
2022/09/13 23:48:03;;;;;;;2.60;1.42;;;23.50;73.80;;;;;;10863013;32;20049;-77
2022/09/13 23:54:06;;;;;;;3.05;2.22;;;23.50;74.00;;;;;;10862253;32;20015;-77
